sensor_id;sensor_type;location;lat;lon;timestamp;P1;durP1;ratioP1;P2;durP2;ratioP2
21347;SDS011;66030;53.582;9.746;2024-03-07T00:00:24;8.05;;;3.85;;
21347;SDS011;66030;53.582;9.746;2024-03-07T00:02:54;8.73;;;4.10;;
21347;SDS011;66030;53.582;9.746;2024-03-07T00:05:24;9.07;;;3.97;;
21347;SDS011;66030;53.582;9.746;2024-03-07T00:07:52;6.15;;;3.72;;
21347;SDS011;66030;53.582;9.746;2024-03-07T00:10:21;7.75;;;3.50;;
21347;SDS011;66030;53.582;9.746;2024-03-07T00:12:49;7.95;;;3.83;;
21347;SDS011;66030;53.582;9.746;2024-03-07T00:15:17;8.57;;;4.47;;
21347;SDS011;66030;53.582;9.746;2024-03-07T00:17:45;7.07;;;3.88;;
21347;SDS011;66030;53.582;9.746;2024-03-07T00:20:13;9.73;;;4.05;;
21347;SDS011;66030;53.582;9.746;2024-03-07T00:22:43;8.32;;;3.80;;
21347;SDS011;66030;53.582;9.746;2024-03-07T00:25:12;8.00;;;4.10;;
21347;SDS011;66030;53.582;9.746;2024-03-07T00:27:45;6.80;;;3.60;;
21347;SDS011;66030;53.582;9.746;2024-03-07T00:30:13;6.15;;;3.42;;
21347;SDS011;66030;53.582;9.746;2024-03-07T00:32:45;5.68;;;3.38;;
21347;SDS011;66030;53.582;9.746;2024-03-07T00:35:13;5.68;;;3.50;;
21347;SDS011;66030;53.582;9.746;2024-03-07T00:37:41;7.35;;;3.60;;
21347;SDS011;66030;53.582;9.746;2024-03-07T00:40:11;7.32;;;3.85;;
21347;SDS011;66030;53.582;9.746;2024-03-07T00:42:39;7.32;;;3.65;;
21347;SDS011;66030;53.582;9.746;2024-03-07T00:45:07;6.00;;;3.67;;
21347;SDS011;66030;53.582;9.746;2024-03-07T00:47:35;6.88;;;3.38;;
21347;SDS011;66030;53.582;9.746;2024-03-07T00:50:05;7.93;;;4.00;;
21347;SDS011;66030;53.582;9.746;2024-03-07T00:52:36;6.55;;;3.47;;
21347;SDS011;66030;53.582;9.746;2024-03-07T00:55:06;7.68;;;3.55;;
21347;SDS011;66030;53.582;9.746;2024-03-07T00:57:35;7.35;;;3.20;;
21347;SDS011;66030;53.582;9.746;2024-03-07T01:00:03;5.30;;;3.15;;
21347;SDS011;66030;53.582;9.746;2024-03-07T01:02:31;6.25;;;3.45;;
21347;SDS011;66030;53.582;9.746;2024-03-07T01:05:00;7.60;;;3.13;;
21347;SDS011;66030;53.582;9.746;2024-03-07T01:07:34;6.97;;;3.38;;
21347;SDS011;66030;53.582;9.746;2024-03-07T01:10:03;4.78;;;2.95;;
21347;SDS011;66030;53.582;9.746;2024-03-07T01:12:35;4.80;;;3.15;;
21347;SDS011;66030;53.582;9.746;2024-03-07T01:15:03;5.68;;;3.08;;
21347;SDS011;66030;53.582;9.746;2024-03-07T01:17:32;6.40;;;3.47;;
21347;SDS011;66030;53.582;9.746;2024-03-07T01:20:00;5.60;;;3.03;;
21347;SDS011;66030;53.582;9.746;2024-03-07T01:22:30;7.95;;;3.72;;
21347;SDS011;66030;53.582;9.746;2024-03-07T01:24:58;6.53;;;3.25;;
21347;SDS011;66030;53.582;9.746;2024-03-07T01:27:27;6.40;;;3.15;;
21347;SDS011;66030;53.582;9.746;2024-03-07T01:29:55;5.50;;;3.20;;
21347;SDS011;66030;53.582;9.746;2024-03-07T01:32:23;6.25;;;3.53;;
21347;SDS011;66030;53.582;9.746;2024-03-07T01:34:51;7.10;;;3.55;;
21347;SDS011;66030;53.582;9.746;2024-03-07T01:37:19;5.72;;;3.08;;
21347;SDS011;66030;53.582;9.746;2024-03-07T01:39:46;8.00;;;3.28;;
21347;SDS011;66030;53.582;9.746;2024-03-07T01:42:14;4.90;;;3.03;;
21347;SDS011;66030;53.582;9.746;2024-03-07T01:44:43;6.40;;;2.80;;
21347;SDS011;66030;53.582;9.746;2024-03-07T01:47:12;7.75;;;3.13;;
21347;SDS011;66030;53.582;9.746;2024-03-07T01:49:40;4.80;;;2.72;;
21347;SDS011;66030;53.582;9.746;2024-03-07T01:52:08;4.28;;;2.92;;
21347;SDS011;66030;53.582;9.746;2024-03-07T01:54:37;6.38;;;3.22;;
21347;SDS011;66030;53.582;9.746;2024-03-07T01:57:05;4.30;;;2.70;;
21347;SDS011;66030;53.582;9.746;2024-03-07T01:59:35;5.15;;;3.10;;
21347;SDS011;66030;53.582;9.746;2024-03-07T02:02:04;5.43;;;3.17;;
21347;SDS011;66030;53.582;9.746;2024-03-07T02:04:32;5.60;;;2.75;;
21347;SDS011;66030;53.582;9.746;2024-03-07T02:07:00;6.63;;;3.40;;
21347;SDS011;66030;53.582;9.746;2024-03-07T02:09:28;6.57;;;3.20;;
21347;SDS011;66030;53.582;9.746;2024-03-07T02:11:56;4.57;;;2.60;;
21347;SDS011;66030;53.582;9.746;2024-03-07T02:14:23;3.95;;;2.97;;
21347;SDS011;66030;53.582;9.746;2024-03-07T02:16:51;5.88;;;3.65;;
21347;SDS011;66030;53.582;9.746;2024-03-07T02:19:20;5.63;;;2.80;;
21347;SDS011;66030;53.582;9.746;2024-03-07T02:21:50;5.45;;;3.00;;
21347;SDS011;66030;53.582;9.746;2024-03-07T02:24:18;4.55;;;2.80;;
21347;SDS011;66030;53.582;9.746;2024-03-07T02:26:46;5.53;;;3.13;;
21347;SDS011;66030;53.582;9.746;2024-03-07T02:29:14;5.18;;;2.65;;
21347;SDS011;66030;53.582;9.746;2024-03-07T02:31:42;5.55;;;2.70;;
21347;SDS011;66030;53.582;9.746;2024-03-07T02:34:09;6.18;;;3.13;;
21347;SDS011;66030;53.582;9.746;2024-03-07T02:36:37;5.30;;;2.78;;
21347;SDS011;66030;53.582;9.746;2024-03-07T02:39:06;5.55;;;2.75;;
21347;SDS011;66030;53.582;9.746;2024-03-07T02:41:36;6.00;;;2.88;;
21347;SDS011;66030;53.582;9.746;2024-03-07T02:44:03;4.68;;;2.63;;
21347;SDS011;66030;53.582;9.746;2024-03-07T02:46:31;5.05;;;2.80;;
21347;SDS011;66030;53.582;9.746;2024-03-07T02:48:59;5.25;;;2.63;;
21347;SDS011;66030;53.582;9.746;2024-03-07T02:51:27;3.83;;;2.50;;
21347;SDS011;66030;53.582;9.746;2024-03-07T02:53:56;5.68;;;3.22;;
21347;SDS011;66030;53.582;9.746;2024-03-07T02:56:25;4.47;;;3.00;;
21347;SDS011;66030;53.582;9.746;2024-03-07T02:58:53;5.05;;;2.60;;
21347;SDS011;66030;53.582;9.746;2024-03-07T03:01:20;6.38;;;2.60;;
21347;SDS011;66030;53.582;9.746;2024-03-07T03:03:49;4.03;;;2.40;;
21347;SDS011;66030;53.582;9.746;2024-03-07T03:06:17;5.22;;;2.97;;
21347;SDS011;66030;53.582;9.746;2024-03-07T03:08:46;4.15;;;2.40;;
21347;SDS011;66030;53.582;9.746;2024-03-07T03:11:15;5.93;;;2.80;;
21347;SDS011;66030;53.582;9.746;2024-03-07T03:13:45;5.80;;;2.67;;
21347;SDS011;66030;53.582;9.746;2024-03-07T03:16:14;4.53;;;2.53;;
21347;SDS011;66030;53.582;9.746;2024-03-07T03:18:42;3.85;;;2.40;;
21347;SDS011;66030;53.582;9.746;2024-03-07T03:21:10;4.93;;;2.45;;
21347;SDS011;66030;53.582;9.746;2024-03-07T03:23:38;6.35;;;2.50;;
21347;SDS011;66030;53.582;9.746;2024-03-07T03:26:06;4.45;;;2.45;;
21347;SDS011;66030;53.582;9.746;2024-03-07T03:28:34;5.55;;;2.80;;
21347;SDS011;66030;53.582;9.746;2024-03-07T03:31:03;5.03;;;2.80;;
21347;SDS011;66030;53.582;9.746;2024-03-07T03:33:31;5.40;;;2.85;;
21347;SDS011;66030;53.582;9.746;2024-03-07T03:35:59;5.25;;;2.80;;
21347;SDS011;66030;53.582;9.746;2024-03-07T03:38:27;5.63;;;2.58;;
21347;SDS011;66030;53.582;9.746;2024-03-07T03:40:55;4.57;;;2.53;;
21347;SDS011;66030;53.582;9.746;2024-03-07T03:43:22;3.97;;;2.90;;
21347;SDS011;66030;53.582;9.746;2024-03-07T03:45:51;4.28;;;2.83;;
21347;SDS011;66030;53.582;9.746;2024-03-07T03:48:20;4.43;;;2.63;;
21347;SDS011;66030;53.582;9.746;2024-03-07T03:50:48;4.95;;;2.72;;
21347;SDS011;66030;53.582;9.746;2024-03-07T03:53:16;5.90;;;2.60;;
21347;SDS011;66030;53.582;9.746;2024-03-07T03:55:44;5.38;;;2.42;;
21347;SDS011;66030;53.582;9.746;2024-03-07T03:58:12;4.88;;;2.08;;
21347;SDS011;66030;53.582;9.746;2024-03-07T04:00:39;5.90;;;2.72;;
21347;SDS011;66030;53.582;9.746;2024-03-07T04:03:07;6.68;;;2.88;;
21347;SDS011;66030;53.582;9.746;2024-03-07T04:05:36;6.47;;;2.50;;
21347;SDS011;66030;53.582;9.746;2024-03-07T04:08:04;4.07;;;2.67;;
21347;SDS011;66030;53.582;9.746;2024-03-07T04:10:33;4.45;;;2.55;;
21347;SDS011;66030;53.582;9.746;2024-03-07T04:13:01;6.68;;;2.38;;
21347;SDS011;66030;53.582;9.746;2024-03-07T04:15:29;4.28;;;2.08;;
21347;SDS011;66030;53.582;9.746;2024-03-07T04:18:02;4.53;;;2.25;;
21347;SDS011;66030;53.582;9.746;2024-03-07T04:20:31;4.75;;;2.42;;
21347;SDS011;66030;53.582;9.746;2024-03-07T04:23:00;3.20;;;2.00;;
21347;SDS011;66030;53.582;9.746;2024-03-07T04:25:28;7.13;;;2.50;;
21347;SDS011;66030;53.582;9.746;2024-03-07T04:27:56;3.53;;;2.00;;
21347;SDS011;66030;53.582;9.746;2024-03-07T04:30:24;3.72;;;2.20;;
21347;SDS011;66030;53.582;9.746;2024-03-07T04:32:52;3.95;;;2.28;;
21347;SDS011;66030;53.582;9.746;2024-03-07T04:35:20;5.82;;;2.35;;
21347;SDS011;66030;53.582;9.746;2024-03-07T04:37:48;3.58;;;1.90;;
21347;SDS011;66030;53.582;9.746;2024-03-07T04:40:17;3.70;;;2.15;;
21347;SDS011;66030;53.582;9.746;2024-03-07T04:42:46;2.85;;;2.03;;
21347;SDS011;66030;53.582;9.746;2024-03-07T04:45:15;3.67;;;1.95;;
21347;SDS011;66030;53.582;9.746;2024-03-07T04:47:44;6.57;;;2.25;;
21347;SDS011;66030;53.582;9.746;2024-03-07T04:50:13;3.13;;;2.20;;
21347;SDS011;66030;53.582;9.746;2024-03-07T04:52:44;3.88;;;1.98;;
21347;SDS011;66030;53.582;9.746;2024-03-07T04:55:14;3.50;;;2.00;;
21347;SDS011;66030;53.582;9.746;2024-03-07T04:57:43;4.75;;;2.47;;
21347;SDS011;66030;53.582;9.746;2024-03-07T05:00:12;4.35;;;2.45;;
21347;SDS011;66030;53.582;9.746;2024-03-07T05:02:43;4.07;;;2.08;;
21347;SDS011;66030;53.582;9.746;2024-03-07T05:05:12;2.55;;;1.67;;
21347;SDS011;66030;53.582;9.746;2024-03-07T05:07:41;4.05;;;2.03;;
21347;SDS011;66030;53.582;9.746;2024-03-07T05:10:09;3.88;;;2.10;;
21347;SDS011;66030;53.582;9.746;2024-03-07T05:12:37;5.25;;;1.67;;
21347;SDS011;66030;53.582;9.746;2024-03-07T05:15:07;3.33;;;1.67;;
21347;SDS011;66030;53.582;9.746;2024-03-07T05:17:36;2.97;;;1.80;;
21347;SDS011;66030;53.582;9.746;2024-03-07T05:20:06;3.10;;;1.70;;
21347;SDS011;66030;53.582;9.746;2024-03-07T05:22:37;3.85;;;2.33;;
21347;SDS011;66030;53.582;9.746;2024-03-07T05:25:07;3.95;;;2.13;;
21347;SDS011;66030;53.582;9.746;2024-03-07T05:27:35;3.38;;;2.28;;
21347;SDS011;66030;53.582;9.746;2024-03-07T05:30:05;3.42;;;1.80;;
21347;SDS011;66030;53.582;9.746;2024-03-07T05:32:38;2.72;;;1.65;;
21347;SDS011;66030;53.582;9.746;2024-03-07T05:35:06;3.78;;;1.52;;
21347;SDS011;66030;53.582;9.746;2024-03-07T05:37:34;2.92;;;1.60;;
21347;SDS011;66030;53.582;9.746;2024-03-07T05:40:02;3.63;;;1.83;;
21347;SDS011;66030;53.582;9.746;2024-03-07T05:42:33;3.30;;;1.70;;
21347;SDS011;66030;53.582;9.746;2024-03-07T05:45:01;3.65;;;1.73;;
21347;SDS011;66030;53.582;9.746;2024-03-07T05:47:33;4.57;;;1.88;;
21347;SDS011;66030;53.582;9.746;2024-03-07T05:50:01;5.07;;;1.88;;
21347;SDS011;66030;53.582;9.746;2024-03-07T05:52:30;2.40;;;1.60;;
21347;SDS011;66030;53.582;9.746;2024-03-07T05:54:58;2.83;;;1.75;;
21347;SDS011;66030;53.582;9.746;2024-03-07T05:57:25;2.95;;;1.80;;
21347;SDS011;66030;53.582;9.746;2024-03-07T05:59:53;3.22;;;1.70;;
21347;SDS011;66030;53.582;9.746;2024-03-07T06:02:23;3.20;;;1.90;;
21347;SDS011;66030;53.582;9.746;2024-03-07T06:04:52;4.05;;;1.98;;
21347;SDS011;66030;53.582;9.746;2024-03-07T06:07:20;3.03;;;2.00;;
21347;SDS011;66030;53.582;9.746;2024-03-07T06:09:47;4.30;;;2.05;;
21347;SDS011;66030;53.582;9.746;2024-03-07T06:12:16;3.20;;;2.08;;
21347;SDS011;66030;53.582;9.746;2024-03-07T06:14:52;3.03;;;1.73;;
21347;SDS011;66030;53.582;9.746;2024-03-07T06:17:20;2.90;;;1.65;;
21347;SDS011;66030;53.582;9.746;2024-03-07T06:19:49;2.40;;;1.35;;
21347;SDS011;66030;53.582;9.746;2024-03-07T06:22:19;2.78;;;1.52;;
21347;SDS011;66030;53.582;9.746;2024-03-07T06:24:47;3.45;;;1.60;;
21347;SDS011;66030;53.582;9.746;2024-03-07T06:27:15;3.83;;;1.67;;
21347;SDS011;66030;53.582;9.746;2024-03-07T06:29:53;2.90;;;1.60;;
21347;SDS011;66030;53.582;9.746;2024-03-07T06:32:21;4.57;;;2.10;;
21347;SDS011;66030;53.582;9.746;2024-03-07T06:34:52;2.90;;;1.83;;
21347;SDS011;66030;53.582;9.746;2024-03-07T06:37:19;3.10;;;1.95;;
21347;SDS011;66030;53.582;9.746;2024-03-07T06:39:48;2.28;;;1.63;;
21347;SDS011;66030;53.582;9.746;2024-03-07T06:42:16;5.88;;;2.17;;
21347;SDS011;66030;53.582;9.746;2024-03-07T06:44:44;4.10;;;1.90;;
21347;SDS011;66030;53.582;9.746;2024-03-07T06:47:12;4.65;;;1.95;;
21347;SDS011;66030;53.582;9.746;2024-03-07T06:49:40;6.90;;;2.40;;
21347;SDS011;66030;53.582;9.746;2024-03-07T06:52:09;3.75;;;2.45;;
21347;SDS011;66030;53.582;9.746;2024-03-07T06:54:37;4.03;;;1.98;;
21347;SDS011;66030;53.582;9.746;2024-03-07T06:57:05;4.00;;;1.95;;
21347;SDS011;66030;53.582;9.746;2024-03-07T06:59:34;3.38;;;1.60;;
21347;SDS011;66030;53.582;9.746;2024-03-07T07:02:03;3.30;;;1.75;;
21347;SDS011;66030;53.582;9.746;2024-03-07T07:04:30;6.57;;;1.90;;
21347;SDS011;66030;53.582;9.746;2024-03-07T07:07:09;3.20;;;2.13;;
21347;SDS011;66030;53.582;9.746;2024-03-07T07:09:39;4.63;;;1.92;;
21347;SDS011;66030;53.582;9.746;2024-03-07T07:12:08;4.93;;;2.40;;
21347;SDS011;66030;53.582;9.746;2024-03-07T07:14:36;5.15;;;1.83;;
21347;SDS011;66030;53.582;9.746;2024-03-07T07:17:05;4.63;;;2.00;;
21347;SDS011;66030;53.582;9.746;2024-03-07T07:19:36;3.58;;;2.28;;
21347;SDS011;66030;53.582;9.746;2024-03-07T07:22:04;4.85;;;1.98;;
21347;SDS011;66030;53.582;9.746;2024-03-07T07:24:34;5.15;;;1.90;;
21347;SDS011;66030;53.582;9.746;2024-03-07T07:27:02;4.78;;;2.22;;
21347;SDS011;66030;53.582;9.746;2024-03-07T07:29:30;5.25;;;2.05;;
21347;SDS011;66030;53.582;9.746;2024-03-07T07:31:58;6.13;;;2.13;;
21347;SDS011;66030;53.582;9.746;2024-03-07T07:34:26;3.90;;;1.95;;
21347;SDS011;66030;53.582;9.746;2024-03-07T07:36:54;3.63;;;2.03;;
21347;SDS011;66030;53.582;9.746;2024-03-07T07:39:22;3.70;;;2.10;;
21347;SDS011;66030;53.582;9.746;2024-03-07T07:41:51;3.00;;;1.90;;
21347;SDS011;66030;53.582;9.746;2024-03-07T07:44:19;5.10;;;2.25;;
21347;SDS011;66030;53.582;9.746;2024-03-07T07:46:48;7.00;;;2.78;;
21347;SDS011;66030;53.582;9.746;2024-03-07T07:49:16;5.00;;;2.28;;
21347;SDS011;66030;53.582;9.746;2024-03-07T07:51:45;4.47;;;2.38;;
21347;SDS011;66030;53.582;9.746;2024-03-07T07:54:15;3.30;;;2.10;;
21347;SDS011;66030;53.582;9.746;2024-03-07T07:56:44;5.10;;;2.58;;
21347;SDS011;66030;53.582;9.746;2024-03-07T07:59:15;4.45;;;2.65;;
21347;SDS011;66030;53.582;9.746;2024-03-07T08:01:43;5.60;;;2.40;;
21347;SDS011;66030;53.582;9.746;2024-03-07T08:04:11;4.90;;;2.40;;
21347;SDS011;66030;53.582;9.746;2024-03-07T08:06:38;6.32;;;2.60;;
21347;SDS011;66030;53.582;9.746;2024-03-07T08:09:07;5.80;;;2.67;;
21347;SDS011;66030;53.582;9.746;2024-03-07T08:11:37;5.40;;;2.70;;
21347;SDS011;66030;53.582;9.746;2024-03-07T08:14:04;5.93;;;2.95;;
21347;SDS011;66030;53.582;9.746;2024-03-07T08:16:34;5.00;;;2.90;;
21347;SDS011;66030;53.582;9.746;2024-03-07T08:19:02;4.22;;;2.92;;
21347;SDS011;66030;53.582;9.746;2024-03-07T08:21:30;5.30;;;2.80;;
21347;SDS011;66030;53.582;9.746;2024-03-07T08:23:58;6.28;;;2.67;;
21347;SDS011;66030;53.582;9.746;2024-03-07T08:26:29;4.90;;;2.40;;
21347;SDS011;66030;53.582;9.746;2024-03-07T08:28:58;7.00;;;2.60;;
21347;SDS011;66030;53.582;9.746;2024-03-07T08:31:26;4.60;;;2.00;;
21347;SDS011;66030;53.582;9.746;2024-03-07T08:33:55;5.10;;;2.38;;
21347;SDS011;66030;53.582;9.746;2024-03-07T08:36:23;5.30;;;3.00;;
21347;SDS011;66030;53.582;9.746;2024-03-07T08:38:51;5.72;;;2.55;;
21347;SDS011;66030;53.582;9.746;2024-03-07T08:41:19;5.35;;;2.80;;
21347;SDS011;66030;53.582;9.746;2024-03-07T08:43:47;4.90;;;2.60;;
21347;SDS011;66030;53.582;9.746;2024-03-07T08:46:15;5.63;;;2.63;;
21347;SDS011;66030;53.582;9.746;2024-03-07T08:48:43;6.60;;;2.60;;
21347;SDS011;66030;53.582;9.746;2024-03-07T08:51:13;5.88;;;2.97;;
21347;SDS011;66030;53.582;9.746;2024-03-07T08:53:42;3.83;;;2.25;;
21347;SDS011;66030;53.582;9.746;2024-03-07T08:56:10;4.63;;;2.30;;
21347;SDS011;66030;53.582;9.746;2024-03-07T08:58:37;4.95;;;2.40;;
21347;SDS011;66030;53.582;9.746;2024-03-07T09:01:05;5.75;;;2.83;;
21347;SDS011;66030;53.582;9.746;2024-03-07T09:03:33;3.83;;;2.88;;
21347;SDS011;66030;53.582;9.746;2024-03-07T09:06:01;4.50;;;2.17;;
21347;SDS011;66030;53.582;9.746;2024-03-07T09:08:31;4.72;;;2.25;;
21347;SDS011;66030;53.582;9.746;2024-03-07T09:10:59;3.70;;;2.22;;
21347;SDS011;66030;53.582;9.746;2024-03-07T09:13:27;3.75;;;2.30;;
21347;SDS011;66030;53.582;9.746;2024-03-07T09:15:54;4.55;;;2.88;;
21347;SDS011;66030;53.582;9.746;2024-03-07T09:18:22;4.55;;;2.17;;
21347;SDS011;66030;53.582;9.746;2024-03-07T09:20:51;4.32;;;2.83;;
21347;SDS011;66030;53.582;9.746;2024-03-07T09:23:20;4.75;;;2.33;;
21347;SDS011;66030;53.582;9.746;2024-03-07T09:25:49;3.80;;;2.20;;
21347;SDS011;66030;53.582;9.746;2024-03-07T09:28:17;5.28;;;2.40;;
21347;SDS011;66030;53.582;9.746;2024-03-07T09:30:46;4.43;;;2.65;;
21347;SDS011;66030;53.582;9.746;2024-03-07T09:33:15;3.92;;;2.40;;
21347;SDS011;66030;53.582;9.746;2024-03-07T09:35:45;3.40;;;2.20;;
21347;SDS011;66030;53.582;9.746;2024-03-07T09:38:14;5.07;;;2.70;;
21347;SDS011;66030;53.582;9.746;2024-03-07T09:40:42;5.40;;;2.47;;
21347;SDS011;66030;53.582;9.746;2024-03-07T09:43:12;5.13;;;2.70;;
21347;SDS011;66030;53.582;9.746;2024-03-07T09:45:41;3.42;;;2.25;;
21347;SDS011;66030;53.582;9.746;2024-03-07T09:48:14;5.85;;;2.50;;
21347;SDS011;66030;53.582;9.746;2024-03-07T09:50:42;6.40;;;2.53;;
21347;SDS011;66030;53.582;9.746;2024-03-07T09:53:11;4.40;;;2.20;;
21347;SDS011;66030;53.582;9.746;2024-03-07T09:55:40;4.03;;;2.15;;
21347;SDS011;66030;53.582;9.746;2024-03-07T09:58:08;2.90;;;1.80;;
21347;SDS011;66030;53.582;9.746;2024-03-07T10:00:40;3.28;;;2.00;;
21347;SDS011;66030;53.582;9.746;2024-03-07T10:03:09;3.35;;;2.20;;
21347;SDS011;66030;53.582;9.746;2024-03-07T10:05:40;4.90;;;2.60;;
21347;SDS011;66030;53.582;9.746;2024-03-07T10:08:09;4.22;;;2.15;;
21347;SDS011;66030;53.582;9.746;2024-03-07T10:10:38;3.97;;;1.77;;
21347;SDS011;66030;53.582;9.746;2024-03-07T10:13:06;3.50;;;2.20;;
21347;SDS011;66030;53.582;9.746;2024-03-07T10:15:36;4.60;;;2.33;;
21347;SDS011;66030;53.582;9.746;2024-03-07T10:18:07;5.03;;;2.33;;
21347;SDS011;66030;53.582;9.746;2024-03-07T10:20:37;3.72;;;1.95;;
21347;SDS011;66030;53.582;9.746;2024-03-07T10:23:06;3.65;;;2.70;;
21347;SDS011;66030;53.582;9.746;2024-03-07T10:25:35;3.15;;;1.80;;
21347;SDS011;66030;53.582;9.746;2024-03-07T10:28:04;5.70;;;2.50;;
21347;SDS011;66030;53.582;9.746;2024-03-07T10:30:39;2.75;;;1.67;;
21347;SDS011;66030;53.582;9.746;2024-03-07T10:33:08;3.50;;;2.08;;
21347;SDS011;66030;53.582;9.746;2024-03-07T10:35:38;3.65;;;2.30;;
21347;SDS011;66030;53.582;9.746;2024-03-07T10:38:06;2.40;;;1.85;;
21347;SDS011;66030;53.582;9.746;2024-03-07T10:40:35;4.05;;;2.13;;
21347;SDS011;66030;53.582;9.746;2024-03-07T10:43:07;3.22;;;1.98;;
21347;SDS011;66030;53.582;9.746;2024-03-07T10:45:40;2.92;;;1.65;;
21347;SDS011;66030;53.582;9.746;2024-03-07T10:48:16;4.20;;;2.90;;
21347;SDS011;66030;53.582;9.746;2024-03-07T10:50:52;5.50;;;2.88;;
21347;SDS011;66030;53.582;9.746;2024-03-07T10:53:28;5.20;;;2.10;;
21347;SDS011;66030;53.582;9.746;2024-03-07T10:56:04;5.47;;;2.00;;
21347;SDS011;66030;53.582;9.746;2024-03-07T10:58:47;3.53;;;2.17;;
21347;SDS011;66030;53.582;9.746;2024-03-07T11:01:26;5.93;;;2.22;;
21347;SDS011;66030;53.582;9.746;2024-03-07T11:03:58;4.68;;;2.40;;
21347;SDS011;66030;53.582;9.746;2024-03-07T11:06:30;3.38;;;2.33;;
21347;SDS011;66030;53.582;9.746;2024-03-07T11:11:37;2.47;;;1.70;;
21347;SDS011;66030;53.582;9.746;2024-03-07T11:14:08;4.70;;;2.13;;
21347;SDS011;66030;53.582;9.746;2024-03-07T11:16:37;5.57;;;1.92;;
21347;SDS011;66030;53.582;9.746;2024-03-07T11:19:18;5.80;;;2.30;;
21347;SDS011;66030;53.582;9.746;2024-03-07T11:21:47;3.67;;;2.38;;
21347;SDS011;66030;53.582;9.746;2024-03-07T11:24:25;4.28;;;2.08;;
21347;SDS011;66030;53.582;9.746;2024-03-07T11:26:55;7.72;;;2.33;;
21347;SDS011;66030;53.582;9.746;2024-03-07T11:29:40;5.20;;;2.33;;
21347;SDS011;66030;53.582;9.746;2024-03-07T11:32:20;9.98;;;2.97;;
21347;SDS011;66030;53.582;9.746;2024-03-07T11:34:53;9.63;;;4.18;;
21347;SDS011;66030;53.582;9.746;2024-03-07T11:37:36;5.25;;;3.50;;
21347;SDS011;66030;53.582;9.746;2024-03-07T11:40:08;7.90;;;3.03;;
21347;SDS011;66030;53.582;9.746;2024-03-07T11:42:46;7.47;;;3.15;;
21347;SDS011;66030;53.582;9.746;2024-03-07T11:45:15;8.07;;;3.10;;
21347;SDS011;66030;53.582;9.746;2024-03-07T11:47:51;7.47;;;3.88;;
21347;SDS011;66030;53.582;9.746;2024-03-07T11:50:27;7.75;;;2.90;;
21347;SDS011;66030;53.582;9.746;2024-03-07T11:53:01;7.53;;;3.90;;
21347;SDS011;66030;53.582;9.746;2024-03-07T11:55:32;5.63;;;2.20;;
21347;SDS011;66030;53.582;9.746;2024-03-07T11:58:09;7.85;;;2.85;;
21347;SDS011;66030;53.582;9.746;2024-03-07T12:00:40;8.30;;;2.67;;
21347;SDS011;66030;53.582;9.746;2024-03-07T12:03:11;7.40;;;2.63;;
21347;SDS011;66030;53.582;9.746;2024-03-07T12:05:45;7.07;;;2.80;;
21347;SDS011;66030;53.582;9.746;2024-03-07T12:08:14;7.53;;;2.80;;
21347;SDS011;66030;53.582;9.746;2024-03-07T12:10:43;6.95;;;2.55;;
21347;SDS011;66030;53.582;9.746;2024-03-07T12:13:15;6.47;;;2.60;;
21347;SDS011;66030;53.582;9.746;2024-03-07T12:15:43;4.90;;;2.53;;
21347;SDS011;66030;53.582;9.746;2024-03-07T12:18:11;7.00;;;2.67;;
21347;SDS011;66030;53.582;9.746;2024-03-07T12:20:45;8.15;;;2.50;;
21347;SDS011;66030;53.582;9.746;2024-03-07T12:23:17;5.18;;;2.38;;
21347;SDS011;66030;53.582;9.746;2024-03-07T12:25:46;3.63;;;2.25;;
21347;SDS011;66030;53.582;9.746;2024-03-07T12:28:14;7.43;;;2.10;;
21347;SDS011;66030;53.582;9.746;2024-03-07T12:30:48;5.10;;;2.20;;
21347;SDS011;66030;53.582;9.746;2024-03-07T12:33:18;4.72;;;2.17;;
21347;SDS011;66030;53.582;9.746;2024-03-07T12:35:48;6.53;;;2.67;;
21347;SDS011;66030;53.582;9.746;2024-03-07T12:38:19;3.42;;;2.50;;
21347;SDS011;66030;53.582;9.746;2024-03-07T12:41:01;8.30;;;2.75;;
21347;SDS011;66030;53.582;9.746;2024-03-07T12:43:32;8.13;;;2.60;;
21347;SDS011;66030;53.582;9.746;2024-03-07T12:46:00;4.95;;;2.30;;
21347;SDS011;66030;53.582;9.746;2024-03-07T12:51:00;28.73;;;12.35;;
21347;SDS011;66030;53.582;9.746;2024-03-07T12:53:29;60.60;;;26.38;;
21347;SDS011;66030;53.582;9.746;2024-03-07T12:55:58;76.22;;;34.35;;
21347;SDS011;66030;53.582;9.746;2024-03-07T12:58:25;102.47;;;45.70;;
21347;SDS011;66030;53.582;9.746;2024-03-07T13:00:55;101.90;;;42.72;;
21347;SDS011;66030;53.582;9.746;2024-03-07T13:03:23;94.00;;;44.53;;
21347;SDS011;66030;53.582;9.746;2024-03-07T13:05:56;100.90;;;43.58;;
21347;SDS011;66030;53.582;9.746;2024-03-07T13:08:30;91.07;;;41.45;;
21347;SDS011;66030;53.582;9.746;2024-03-07T13:10:58;90.00;;;41.95;;
21347;SDS011;66030;53.582;9.746;2024-03-07T13:13:27;90.93;;;40.97;;
21347;SDS011;66030;53.582;9.746;2024-03-07T13:15:57;99.57;;;41.65;;
21347;SDS011;66030;53.582;9.746;2024-03-07T13:18:26;85.07;;;37.88;;
21347;SDS011;66030;53.582;9.746;2024-03-07T13:20:54;83.82;;;37.88;;
21347;SDS011;66030;53.582;9.746;2024-03-07T13:23:22;85.50;;;36.88;;
21347;SDS011;66030;53.582;9.746;2024-03-07T13:25:56;80.13;;;35.55;;
21347;SDS011;66030;53.582;9.746;2024-03-07T13:28:24;76.60;;;33.92;;
21347;SDS011;66030;53.582;9.746;2024-03-07T13:30:54;69.28;;;31.92;;
21347;SDS011;66030;53.582;9.746;2024-03-07T13:33:22;70.15;;;31.27;;
21347;SDS011;66030;53.582;9.746;2024-03-07T13:35:54;68.45;;;28.38;;
21347;SDS011;66030;53.582;9.746;2024-03-07T13:38:23;72.57;;;30.08;;
21347;SDS011;66030;53.582;9.746;2024-03-07T13:40:52;63.33;;;28.05;;
21347;SDS011;66030;53.582;9.746;2024-03-07T13:43:24;59.17;;;27.58;;
21347;SDS011;66030;53.582;9.746;2024-03-07T13:45:52;50.85;;;26.02;;
21347;SDS011;66030;53.582;9.746;2024-03-07T13:48:20;64.20;;;27.42;;
21347;SDS011;66030;53.582;9.746;2024-03-07T13:50:49;61.67;;;27.23;;
21347;SDS011;66030;53.582;9.746;2024-03-07T13:53:26;59.67;;;26.58;;
21347;SDS011;66030;53.582;9.746;2024-03-07T13:56:14;59.53;;;25.38;;
21347;SDS011;66030;53.582;9.746;2024-03-07T13:59:20;48.80;;;23.92;;
21347;SDS011;66030;53.582;9.746;2024-03-07T14:02:25;55.60;;;24.38;;
21347;SDS011;66030;53.582;9.746;2024-03-07T14:05:24;55.70;;;23.73;;
21347;SDS011;66030;53.582;9.746;2024-03-07T14:14:42;51.85;;;22.83;;
21347;SDS011;66030;53.582;9.746;2024-03-07T14:17:44;46.75;;;21.08;;
21347;SDS011;66030;53.582;9.746;2024-03-07T14:26:44;46.38;;;19.17;;
21347;SDS011;66030;53.582;9.746;2024-03-07T14:29:24;45.50;;;20.55;;
21347;SDS011;66030;53.582;9.746;2024-03-07T14:32:08;41.67;;;19.13;;
21347;SDS011;66030;53.582;9.746;2024-03-07T14:34:45;43.42;;;19.13;;
21347;SDS011;66030;53.582;9.746;2024-03-07T14:37:23;42.38;;;18.90;;
21347;SDS011;66030;53.582;9.746;2024-03-07T14:40:02;42.33;;;19.33;;
21347;SDS011;66030;53.582;9.746;2024-03-07T14:42:39;38.20;;;18.67;;
21347;SDS011;66030;53.582;9.746;2024-03-07T14:45:11;39.33;;;17.52;;
21347;SDS011;66030;53.582;9.746;2024-03-07T14:47:44;40.92;;;17.08;;
21347;SDS011;66030;53.582;9.746;2024-03-07T14:50:14;43.53;;;17.23;;
21347;SDS011;66030;53.582;9.746;2024-03-07T14:52:42;39.30;;;17.50;;
21347;SDS011;66030;53.582;9.746;2024-03-07T14:55:11;30.45;;;16.33;;
21347;SDS011;66030;53.582;9.746;2024-03-07T14:57:44;34.67;;;15.95;;
21347;SDS011;66030;53.582;9.746;2024-03-07T15:00:13;37.88;;;15.80;;
21347;SDS011;66030;53.582;9.746;2024-03-07T15:03:00;36.92;;;16.00;;
21347;SDS011;66030;53.582;9.746;2024-03-07T15:05:29;35.35;;;14.23;;
21347;SDS011;66030;53.582;9.746;2024-03-07T15:07:57;26.13;;;14.18;;
21347;SDS011;66030;53.582;9.746;2024-03-07T15:10:27;39.28;;;15.90;;
21347;SDS011;66030;53.582;9.746;2024-03-07T15:12:59;26.98;;;13.70;;
21347;SDS011;66030;53.582;9.746;2024-03-07T15:15:29;29.25;;;13.48;;
21347;SDS011;66030;53.582;9.746;2024-03-07T15:17:59;32.03;;;14.05;;